Miquan, China
Current Conditions -  °F | °C
As of 9:30 AM on Saturday 25 Oct 2014 (Local Time) from ZWWW Reporting Station
Clear Clear  
Wind Chill: 54°   Ceiling: Unl
Heat Index: 54°   Visibility: 6mi
Dew Point: 41°   Wind: 4mph
Humidity: 62%   Direction: 170°S
Pressure: 30.03"   Gusts: NA
Location:  43.97°N, 87.7°E
Report Text: ZWWW 250130Z 17002MPS 140V210 CAVOK 12/05 Q1017 NOSIG
Loading
Personal Weather Stations






























Interactive Weather Map
Tropical Storm Tracking
New forecast layout! Learn more

10-Day Weather Forecast

Advertisements
Track Severe Weather on mobile